Amay, Belgium
Current Conditions -  °F | °C
As of 9:20 PM on Monday 22 Dec 2014 (Local Time) from EBLG Reporting Station
Broken Clouds Broken Clouds  
Wind Chill: 50°   Ceiling: 1500
Heat Index: 50°   Visibility: 6mi
Dew Point: 46°   Wind: 18mph
Humidity: 87%   Direction: 240°WSW
Pressure: 30.15"   Gusts: NA
Location:  50.55°N, 5.31°E
Report Text: EBLG 222020Z 24016KT 9999 FEW010 BKN015 10/08 Q1021 TEMPO 23017G30KT 4000 -RADZ BKN006
Loading
Personal Weather Stations






























Interactive Weather Map New forecast layout! Learn more

10-Day Weather Forecast

Advertisements
Track Severe Weather on mobile